sensor_id;sensor_type;location;lat;lon;timestamp;pressure;altitude;pressure_sealevel;temperature;humidity
69772;BME280;57046;45.988;18.664;2023-06-04T00:01:13;100890.53;;;16.97;76.65
69772;BME280;57046;45.988;18.664;2023-06-04T00:03:38;100873.69;;;16.79;77.61
69772;BME280;57046;45.988;18.664;2023-06-04T00:06:03;100884.00;;;16.86;76.38
69772;BME280;57046;45.988;18.664;2023-06-04T00:08:28;100876.53;;;16.83;75.95
69772;BME280;57046;45.988;18.664;2023-06-04T00:10:54;100880.94;;;16.87;75.85
69772;BME280;57046;45.988;18.664;2023-06-04T00:13:19;100878.03;;;16.80;75.73
69772;BME280;57046;45.988;18.664;2023-06-04T00:15:45;100886.03;;;16.89;77.00
69772;BME280;57046;45.988;18.664;2023-06-04T00:18:10;100881.88;;;16.95;76.07
69772;BME280;57046;45.988;18.664;2023-06-04T00:20:35;100875.72;;;16.82;76.45
69772;BME280;57046;45.988;18.664;2023-06-04T00:23:01;100878.78;;;16.65;74.94
69772;BME280;57046;45.988;18.664;2023-06-04T00:25:26;100874.22;;;16.69;74.69
69772;BME280;57046;45.988;18.664;2023-06-04T00:27:51;100865.75;;;16.74;75.44
69772;BME280;57046;45.988;18.664;2023-06-04T00:30:17;100869.66;;;16.73;75.77
69772;BME280;57046;45.988;18.664;2023-06-04T00:32:42;100873.09;;;16.70;75.62
69772;BME280;57046;45.988;18.664;2023-06-04T00:35:08;100874.94;;;16.54;75.74
69772;BME280;57046;45.988;18.664;2023-06-04T00:37:33;100857.84;;;16.41;74.33
69772;BME280;57046;45.988;18.664;2023-06-04T00:39:59;100872.38;;;16.45;74.85
69772;BME280;57046;45.988;18.664;2023-06-04T00:42:24;100864.91;;;16.42;74.54
69772;BME280;57046;45.988;18.664;2023-06-04T00:44:50;100876.06;;;16.37;75.19
69772;BME280;57046;45.988;18.664;2023-06-04T00:47:16;100871.50;;;16.41;74.42
69772;BME280;57046;45.988;18.664;2023-06-04T00:49:41;100876.25;;;16.44;75.38
69772;BME280;57046;45.988;18.664;2023-06-04T00:52:12;100860.19;;;16.27;75.87
69772;BME280;57046;45.988;18.664;2023-06-04T00:54:39;100874.72;;;16.31;76.24
69772;BME280;57046;45.988;18.664;2023-06-04T00:57:04;100868.03;;;16.28;75.89
69772;BME280;57046;45.988;18.664;2023-06-04T00:59:31;100808.97;;;15.93;75.81
69772;BME280;57046;45.988;18.664;2023-06-04T01:02:03;100838.88;;;16.17;76.99
69772;BME280;57046;45.988;18.664;2023-06-04T01:04:54;100862.56;;;16.28;77.00
69772;BME280;57046;45.988;18.664;2023-06-04T01:07:26;100862.47;;;16.25;76.95
69772;BME280;57046;45.988;18.664;2023-06-04T01:09:52;100856.03;;;16.17;76.81
69772;BME280;57046;45.988;18.664;2023-06-04T01:12:17;100861.25;;;16.22;76.52
69772;BME280;57046;45.988;18.664;2023-06-04T01:14:43;100857.81;;;15.98;77.76
69772;BME280;57046;45.988;18.664;2023-06-04T01:17:28;100863.25;;;15.98;77.82
69772;BME280;57046;45.988;18.664;2023-06-04T01:24:59;100863.25;;;15.98;77.33
69772;BME280;57046;45.988;18.664;2023-06-04T01:27:27;100862.47;;;15.97;78.03
69772;BME280;57046;45.988;18.664;2023-06-04T01:29:53;100864.91;;;16.14;77.70
69772;BME280;57046;45.988;18.664;2023-06-04T01:32:19;100865.72;;;16.03;77.62
69772;BME280;57046;45.988;18.664;2023-06-04T01:34:45;100870.41;;;16.02;77.60
69772;BME280;57046;45.988;18.664;2023-06-04T01:37:11;100874.06;;;15.94;77.87
69772;BME280;57046;45.988;18.664;2023-06-04T01:39:37;100870.34;;;15.87;78.35
69772;BME280;57046;45.988;18.664;2023-06-04T01:42:02;100866.38;;;15.84;78.45
69772;BME280;57046;45.988;18.664;2023-06-04T01:44:27;100874.41;;;15.93;77.97
69772;BME280;57046;45.988;18.664;2023-06-04T01:46:53;100852.53;;;15.77;78.27
69772;BME280;57046;45.988;18.664;2023-06-04T01:49:18;100880.22;;;15.91;77.76
69772;BME280;57046;45.988;18.664;2023-06-04T01:51:43;100882.03;;;15.87;77.90
69772;BME280;57046;45.988;18.664;2023-06-04T01:54:09;100888.81;;;15.93;77.23
69772;BME280;57046;45.988;18.664;2023-06-04T01:56:34;100880.81;;;15.85;76.94
69772;BME280;57046;45.988;18.664;2023-06-04T01:58:59;100891.94;;;15.79;78.00
69772;BME280;57046;45.988;18.664;2023-06-04T02:01:25;100897.63;;;15.74;78.72
69772;BME280;57046;45.988;18.664;2023-06-04T02:03:50;100873.13;;;15.50;78.30
69772;BME280;57046;45.988;18.664;2023-06-04T02:06:15;100876.06;;;15.45;78.83
69772;BME280;57046;45.988;18.664;2023-06-04T02:08:41;100904.31;;;15.65;78.68
69772;BME280;57046;45.988;18.664;2023-06-04T02:11:06;100900.50;;;15.54;78.56
69772;BME280;57046;45.988;18.664;2023-06-04T02:13:31;100905.69;;;15.47;79.10
69772;BME280;57046;45.988;18.664;2023-06-04T02:15:57;100904.09;;;15.34;77.30
69772;BME280;57046;45.988;18.664;2023-06-04T02:18:22;100892.50;;;15.24;77.72
69772;BME280;57046;45.988;18.664;2023-06-04T02:20:49;100903.31;;;15.33;77.81
69772;BME280;57046;45.988;18.664;2023-06-04T02:23:16;100851.22;;;14.98;77.70
69772;BME280;57046;45.988;18.664;2023-06-04T02:25:42;100907.50;;;15.31;78.18
69772;BME280;57046;45.988;18.664;2023-06-04T02:28:08;100901.47;;;15.25;78.09
69772;BME280;57046;45.988;18.664;2023-06-04T02:30:33;100905.56;;;15.19;78.29
69772;BME280;57046;45.988;18.664;2023-06-04T02:32:58;100901.47;;;15.13;78.70
69772;BME280;57046;45.988;18.664;2023-06-04T02:35:24;100912.94;;;15.06;78.01
69772;BME280;57046;45.988;18.664;2023-06-04T02:37:49;100859.69;;;14.72;78.50
69772;BME280;57046;45.988;18.664;2023-06-04T02:40:15;100902.00;;;14.94;77.42
69772;BME280;57046;45.988;18.664;2023-06-04T02:42:40;100897.00;;;14.84;77.17
69772;BME280;57046;45.988;18.664;2023-06-04T02:45:06;100903.38;;;14.88;77.49
69772;BME280;57046;45.988;18.664;2023-06-04T02:47:31;100908.69;;;14.85;77.67
69772;BME280;57046;45.988;18.664;2023-06-04T02:49:57;100909.13;;;14.74;77.10
69772;BME280;57046;45.988;18.664;2023-06-04T02:52:23;100887.75;;;14.52;76.65
69772;BME280;57046;45.988;18.664;2023-06-04T02:54:48;100912.16;;;14.61;77.63
69772;BME280;57046;45.988;18.664;2023-06-04T02:57:13;100915.91;;;14.68;78.04
69772;BME280;57046;45.988;18.664;2023-06-04T02:59:39;100912.28;;;14.64;78.42
69772;BME280;57046;45.988;18.664;2023-06-04T03:02:05;100908.63;;;14.60;78.15
69772;BME280;57046;45.988;18.664;2023-06-04T03:04:31;100910.34;;;14.65;78.27
69772;BME280;57046;45.988;18.664;2023-06-04T03:06:56;100913.88;;;14.65;78.79
69772;BME280;57046;45.988;18.664;2023-06-04T03:09:21;100899.00;;;14.63;78.65
69772;BME280;57046;45.988;18.664;2023-06-04T03:11:47;100917.03;;;14.67;77.15
69772;BME280;57046;45.988;18.664;2023-06-04T03:14:12;100911.34;;;14.60;78.29
69772;BME280;57046;45.988;18.664;2023-06-04T03:16:38;100912.81;;;14.58;77.54
69772;BME280;57046;45.988;18.664;2023-06-04T03:19:03;100914.03;;;14.48;77.35
69772;BME280;57046;45.988;18.664;2023-06-04T03:21:28;100918.81;;;14.51;78.39
69772;BME280;57046;45.988;18.664;2023-06-04T03:23:54;100925.41;;;14.62;78.12
69772;BME280;57046;45.988;18.664;2023-06-04T03:26:19;100931.19;;;14.61;79.17
69772;BME280;57046;45.988;18.664;2023-06-04T03:28:44;100921.41;;;14.60;79.18
69772;BME280;57046;45.988;18.664;2023-06-04T03:31:10;100924.16;;;14.60;79.16
69772;BME280;57046;45.988;18.664;2023-06-04T03:33:35;100879.78;;;14.35;79.77
69772;BME280;57046;45.988;18.664;2023-06-04T03:36:00;100927.78;;;14.64;79.74
69772;BME280;57046;45.988;18.664;2023-06-04T03:38:26;100932.78;;;14.62;79.15
69772;BME280;57046;45.988;18.664;2023-06-04T03:40:51;100925.19;;;14.67;78.37
69772;BME280;57046;45.988;18.664;2023-06-04T03:43:17;100936.19;;;14.71;79.40
69772;BME280;57046;45.988;18.664;2023-06-04T03:45:42;100926.13;;;14.71;77.30
69772;BME280;57046;45.988;18.664;2023-06-04T03:48:07;100926.00;;;14.80;78.15
69772;BME280;57046;45.988;18.664;2023-06-04T03:50:33;100933.72;;;14.78;76.66
69772;BME280;57046;45.988;18.664;2023-06-04T03:52:58;100928.84;;;14.84;76.78
69772;BME280;57046;45.988;18.664;2023-06-04T03:55:23;100902.19;;;14.65;76.19
69772;BME280;57046;45.988;18.664;2023-06-04T03:57:49;100925.63;;;15.02;79.78
69772;BME280;57046;45.988;18.664;2023-06-04T04:00:14;100929.59;;;14.93;77.67
69772;BME280;57046;45.988;18.664;2023-06-04T04:02:40;100939.53;;;14.89;78.11
69772;BME280;57046;45.988;18.664;2023-06-04T04:05:06;100940.00;;;14.91;78.18
69772;BME280;57046;45.988;18.664;2023-06-04T04:07:32;100945.91;;;14.93;79.01
69772;BME280;57046;45.988;18.664;2023-06-04T04:09:57;100942.50;;;14.96;79.34
69772;BME280;57046;45.988;18.664;2023-06-04T04:12:23;100932.88;;;14.98;79.08
69772;BME280;57046;45.988;18.664;2023-06-04T04:14:48;100952.63;;;15.07;78.79
69772;BME280;57046;45.988;18.664;2023-06-04T04:17:14;100942.88;;;15.06;78.51
69772;BME280;57046;45.988;18.664;2023-06-04T04:19:39;100947.28;;;15.11;79.18
69772;BME280;57046;45.988;18.664;2023-06-04T04:22:05;100949.44;;;15.17;78.35
69772;BME280;57046;45.988;18.664;2023-06-04T04:24:30;100947.22;;;15.19;76.48
69772;BME280;57046;45.988;18.664;2023-06-04T04:26:56;100953.22;;;15.25;73.24
69772;BME280;57046;45.988;18.664;2023-06-04T04:29:22;100943.47;;;15.24;70.55
69772;BME280;57046;45.988;18.664;2023-06-04T04:31:54;100956.28;;;15.36;68.64
69772;BME280;57046;45.988;18.664;2023-06-04T04:34:19;100961.84;;;15.39;67.92
69772;BME280;57046;45.988;18.664;2023-06-04T04:36:45;100961.44;;;15.49;66.35
69772;BME280;57046;45.988;18.664;2023-06-04T04:39:10;100969.41;;;15.54;66.78
69772;BME280;57046;45.988;18.664;2023-06-04T04:41:37;100926.13;;;15.41;67.29
69772;BME280;57046;45.988;18.664;2023-06-04T04:44:03;100958.28;;;15.71;65.54
69772;BME280;57046;45.988;18.664;2023-06-04T04:46:29;100959.03;;;15.72;65.89
69772;BME280;57046;45.988;18.664;2023-06-04T04:48:54;100957.34;;;15.79;63.92
69772;BME280;57046;45.988;18.664;2023-06-04T04:51:21;100966.09;;;15.85;62.69
69772;BME280;57046;45.988;18.664;2023-06-04T04:53:46;100959.03;;;15.84;63.78
69772;BME280;57046;45.988;18.664;2023-06-04T04:56:12;100966.97;;;15.89;61.44
69772;BME280;57046;45.988;18.664;2023-06-04T04:58:37;100962.31;;;16.02;60.15
69772;BME280;57046;45.988;18.664;2023-06-04T05:01:02;100965.13;;;16.17;62.08
69772;BME280;57046;45.988;18.664;2023-06-04T05:03:28;100963.41;;;16.13;61.20
69772;BME280;57046;45.988;18.664;2023-06-04T05:05:53;100959.22;;;16.15;60.99
69772;BME280;57046;45.988;18.664;2023-06-04T05:08:18;100950.56;;;16.13;63.66
69772;BME280;57046;45.988;18.664;2023-06-04T05:10:44;100969.75;;;16.29;61.68
69772;BME280;57046;45.988;18.664;2023-06-04T05:13:09;100961.22;;;16.30;61.84
69772;BME280;57046;45.988;18.664;2023-06-04T05:15:34;100957.00;;;16.33;60.80
69772;BME280;57046;45.988;18.664;2023-06-04T05:18:00;100956.44;;;16.40;60.93
69772;BME280;57046;45.988;18.664;2023-06-04T05:20:25;100962.97;;;16.51;59.87
69772;BME280;57046;45.988;18.664;2023-06-04T05:22:50;100962.06;;;16.59;60.59
69772;BME280;57046;45.988;18.664;2023-06-04T05:25:16;100965.31;;;16.64;61.60
69772;BME280;57046;45.988;18.664;2023-06-04T05:27:41;100969.03;;;16.72;62.36
69772;BME280;57046;45.988;18.664;2023-06-04T05:30:08;100976.19;;;16.76;60.37
69772;BME280;57046;45.988;18.664;2023-06-04T05:32:33;100972.16;;;16.86;61.88
69772;BME280;57046;45.988;18.664;2023-06-04T05:34:59;100969.06;;;16.88;60.98
69772;BME280;57046;45.988;18.664;2023-06-04T05:37:25;100972.78;;;16.95;60.59
69772;BME280;57046;45.988;18.664;2023-06-04T05:39:51;100964.44;;;17.04;60.48
69772;BME280;57046;45.988;18.664;2023-06-04T05:42:16;100970.88;;;17.11;61.77
69772;BME280;57046;45.988;18.664;2023-06-04T05:44:42;100968.13;;;17.11;60.09
69772;BME280;57046;45.988;18.664;2023-06-04T05:47:07;100976.50;;;17.18;61.56
69772;BME280;57046;45.988;18.664;2023-06-04T05:49:34;100988.34;;;17.22;60.21
69772;BME280;57046;45.988;18.664;2023-06-04T05:52:00;100975.13;;;17.24;61.61
69772;BME280;57046;45.988;18.664;2023-06-04T05:54:26;100973.44;;;17.36;61.69
69772;BME280;57046;45.988;18.664;2023-06-04T05:56:52;100980.78;;;17.47;59.90
69772;BME280;57046;45.988;18.664;2023-06-04T05:59:17;100974.00;;;17.57;63.19
69772;BME280;57046;45.988;18.664;2023-06-04T06:01:43;100972.94;;;17.61;63.07
69772;BME280;57046;45.988;18.664;2023-06-04T06:04:08;100975.31;;;17.63;60.67
69772;BME280;57046;45.988;18.664;2023-06-04T06:06:34;100950.78;;;17.51;58.78
69772;BME280;57046;45.988;18.664;2023-06-04T06:09:00;100983.50;;;17.78;59.72
69772;BME280;57046;45.988;18.664;2023-06-04T06:11:26;100980.50;;;17.84;63.88
69772;BME280;57046;45.988;18.664;2023-06-04T06:13:51;100987.72;;;17.92;60.94
69772;BME280;57046;45.988;18.664;2023-06-04T06:16:16;100992.13;;;17.96;63.01
69772;BME280;57046;45.988;18.664;2023-06-04T06:18:42;100995.97;;;18.11;60.22
69772;BME280;57046;45.988;18.664;2023-06-04T06:21:07;100969.63;;;18.03;59.20
69772;BME280;57046;45.988;18.664;2023-06-04T06:23:32;100979.06;;;18.24;57.87
69772;BME280;57046;45.988;18.664;2023-06-04T06:25:58;101001.59;;;18.37;59.75
69772;BME280;57046;45.988;18.664;2023-06-04T06:28:23;100989.16;;;18.40;61.30
69772;BME280;57046;45.988;18.664;2023-06-04T06:30:48;100999.09;;;18.48;58.94
69772;BME280;57046;45.988;18.664;2023-06-04T06:33:14;101001.59;;;18.53;59.13
69772;BME280;57046;45.988;18.664;2023-06-04T06:35:39;100992.38;;;18.61;59.99
69772;BME280;57046;45.988;18.664;2023-06-04T06:38:05;101008.91;;;18.68;61.31
69772;BME280;57046;45.988;18.664;2023-06-04T06:40:30;101009.78;;;18.72;58.82
69772;BME280;57046;45.988;18.664;2023-06-04T06:42:55;101009.22;;;18.82;59.91
69772;BME280;57046;45.988;18.664;2023-06-04T06:45:21;100991.63;;;18.83;58.40
69772;BME280;57046;45.988;18.664;2023-06-04T06:47:46;100994.56;;;18.94;58.39
69772;BME280;57046;45.988;18.664;2023-06-04T06:50:12;100991.66;;;19.06;58.33
69772;BME280;57046;45.988;18.664;2023-06-04T06:52:38;100985.97;;;19.14;57.60
69772;BME280;57046;45.988;18.664;2023-06-04T06:55:04;100994.38;;;19.25;58.83
69772;BME280;57046;45.988;18.664;2023-06-04T06:57:29;100989.38;;;19.30;58.92
69772;BME280;57046;45.988;18.664;2023-06-04T06:59:55;100993.25;;;19.49;57.54
69772;BME280;57046;45.988;18.664;2023-06-04T07:02:20;100988.59;;;19.53;57.31
69772;BME280;57046;45.988;18.664;2023-06-04T07:04:46;100981.72;;;19.62;57.66
69772;BME280;57046;45.988;18.664;2023-06-04T07:07:11;100996.47;;;19.80;56.08
69772;BME280;57046;45.988;18.664;2023-06-04T07:09:36;100970.06;;;19.69;55.52
69772;BME280;57046;45.988;18.664;2023-06-04T07:12:02;100989.25;;;19.95;58.16
69772;BME280;57046;45.988;18.664;2023-06-04T07:14:27;100996.84;;;20.05;56.06
69772;BME280;57046;45.988;18.664;2023-06-04T07:16:52;100993.41;;;20.12;56.63
69772;BME280;57046;45.988;18.664;2023-06-04T07:19:18;100989.16;;;20.18;55.38
69772;BME280;57046;45.988;18.664;2023-06-04T07:21:43;100998.88;;;20.38;58.25
69772;BME280;57046;45.988;18.664;2023-06-04T07:24:09;100990.78;;;20.49;55.10
69772;BME280;57046;45.988;18.664;2023-06-04T07:26:34;100980.69;;;20.56;55.55
69772;BME280;57046;45.988;18.664;2023-06-04T07:28:59;100987.94;;;20.71;56.14
69772;BME280;57046;45.988;18.664;2023-06-04T07:31:25;100984.53;;;20.81;53.22
69772;BME280;57046;45.988;18.664;2023-06-04T07:33:50;100979.53;;;20.94;51.48
69772;BME280;57046;45.988;18.664;2023-06-04T07:36:16;100989.09;;;21.07;52.87
69772;BME280;57046;45.988;18.664;2023-06-04T07:38:41;100954.84;;;20.98;52.85
69772;BME280;57046;45.988;18.664;2023-06-04T07:41:07;100979.34;;;21.13;51.58
69772;BME280;57046;45.988;18.664;2023-06-04T07:43:33;100985.00;;;21.27;50.07
69772;BME280;57046;45.988;18.664;2023-06-04T07:45:59;100997.72;;;21.43;51.36
69772;BME280;57046;45.988;18.664;2023-06-04T07:48:24;100989.59;;;21.57;53.63
69772;BME280;57046;45.988;18.664;2023-06-04T07:50:49;100990.41;;;21.64;51.57
69772;BME280;57046;45.988;18.664;2023-06-04T07:53:15;100991.31;;;21.79;49.58
69772;BME280;57046;45.988;18.664;2023-06-04T07:55:40;100987.84;;;21.89;52.34
69772;BME280;57046;45.988;18.664;2023-06-04T07:58:05;100985.19;;;22.00;49.97
69772;BME280;57046;45.988;18.664;2023-06-04T08:00:31;100984.47;;;22.13;48.52
69772;BME280;57046;45.988;18.664;2023-06-04T08:02:56;100984.53;;;22.20;48.79
69772;BME280;57046;45.988;18.664;2023-06-04T08:05:21;100990.91;;;22.42;50.42
69772;BME280;57046;45.988;18.664;2023-06-04T08:07:47;100990.16;;;22.52;48.84
69772;BME280;57046;45.988;18.664;2023-06-04T08:10:12;100974.84;;;22.55;48.00
69772;BME280;57046;45.988;18.664;2023-06-04T08:12:38;100985.16;;;22.68;49.73
69772;BME280;57046;45.988;18.664;2023-06-04T08:15:03;100991.47;;;22.83;50.04
69772;BME280;57046;45.988;18.664;2023-06-04T08:17:29;100994.28;;;22.97;48.23
69772;BME280;57046;45.988;18.664;2023-06-04T08:19:55;100944.59;;;22.76;47.35
69772;BME280;57046;45.988;18.664;2023-06-04T08:22:21;100982.50;;;23.14;45.14
69772;BME280;57046;45.988;18.664;2023-06-04T08:24:46;100984.09;;;23.26;48.36
69772;BME280;57046;45.988;18.664;2023-06-04T08:27:12;100985.66;;;23.38;46.19
69772;BME280;57046;45.988;18.664;2023-06-04T08:29:37;100954.53;;;23.33;46.89
69772;BME280;57046;45.988;18.664;2023-06-04T08:32:02;100995.16;;;23.61;44.59
69772;BME280;57046;45.988;18.664;2023-06-04T08:34:28;100986.47;;;23.70;45.19
69772;BME280;57046;45.988;18.664;2023-06-04T08:36:53;100984.50;;;23.77;46.10
69772;BME280;57046;45.988;18.664;2023-06-04T08:39:18;100984.88;;;23.87;45.78
69772;BME280;57046;45.988;18.664;2023-06-04T08:41:47;100993.53;;;24.03;45.29
69772;BME280;57046;45.988;18.664;2023-06-04T08:44:16;100954.50;;;23.90;47.29
69772;BME280;57046;45.988;18.664;2023-06-04T08:46:43;100980.88;;;24.16;43.55
69772;BME280;57046;45.988;18.664;2023-06-04T08:49:09;100980.47;;;24.31;43.80
69772;BME280;57046;45.988;18.664;2023-06-04T08:51:37;100983.94;;;24.46;45.65
69772;BME280;57046;45.988;18.664;2023-06-04T08:54:06;100989.81;;;24.62;43.69
69772;BME280;57046;45.988;18.664;2023-06-04T08:56:32;100977.94;;;24.65;43.64
69772;BME280;57046;45.988;18.664;2023-06-04T08:59:00;100955.41;;;24.63;44.07
69772;BME280;57046;45.988;18.664;2023-06-04T09:01:25;100978.59;;;24.94;43.95
69772;BME280;57046;45.988;18.664;2023-06-04T09:03:51;100975.78;;;25.01;43.06
69772;BME280;57046;45.988;18.664;2023-06-04T09:06:17;100984.88;;;24.98;43.22
69772;BME280;57046;45.988;18.664;2023-06-04T09:08:44;100986.78;;;25.08;44.31
69772;BME280;57046;45.988;18.664;2023-06-04T09:11:11;100977.31;;;25.09;41.95
69772;BME280;57046;45.988;18.664;2023-06-04T09:13:39;100984.69;;;25.26;43.54
69772;BME280;57046;45.988;18.664;2023-06-04T09:16:05;100994.47;;;25.38;42.58
69772;BME280;57046;45.988;18.664;2023-06-04T09:18:32;100996.00;;;25.46;40.36
69772;BME280;57046;45.988;18.664;2023-06-04T09:21:08;100994.44;;;25.42;39.23
69772;BME280;57046;45.988;18.664;2023-06-04T09:23:46;101001.50;;;25.53;43.01
69772;BME280;57046;45.988;18.664;2023-06-04T09:26:12;100985.66;;;25.57;41.05
69772;BME280;57046;45.988;18.664;2023-06-04T09:28:42;100990.34;;;25.64;41.24
69772;BME280;57046;45.988;18.664;2023-06-04T09:31:17;100998.13;;;25.76;42.03
69772;BME280;57046;45.988;18.664;2023-06-04T09:33:46;100984.63;;;25.85;40.93
69772;BME280;57046;45.988;18.664;2023-06-04T09:36:12;100988.19;;;25.86;42.67
69772;BME280;57046;45.988;18.664;2023-06-04T09:38:38;100989.63;;;25.97;42.28
69772;BME280;57046;45.988;18.664;2023-06-04T09:41:04;100977.75;;;25.97;42.30
69772;BME280;57046;45.988;18.664;2023-06-04T09:43:36;100984.81;;;26.05;43.13
69772;BME280;57046;45.988;18.664;2023-06-04T09:46:17;100963.16;;;25.93;43.08
69772;BME280;57046;45.988;18.664;2023-06-04T09:48:44;100987.84;;;26.17;40.65
69772;BME280;57046;45.988;18.664;2023-06-04T09:51:14;100983.06;;;26.21;42.10
69772;BME280;57046;45.988;18.664;2023-06-04T09:53:39;100972.22;;;26.34;40.65
69772;BME280;57046;45.988;18.664;2023-06-04T09:56:06;100977.78;;;26.30;41.96
69772;BME280;57046;45.988;18.664;2023-06-04T09:58:32;100974.16;;;26.37;40.19
69772;BME280;57046;45.988;18.664;2023-06-04T10:00:59;100970.16;;;26.42;40.16
69772;BME280;57046;45.988;18.664;2023-06-04T10:03:25;100972.03;;;26.48;41.11
69772;BME280;57046;45.988;18.664;2023-06-04T10:05:56;100964.00;;;26.57;41.45
69772;BME280;57046;45.988;18.664;2023-06-04T10:08:22;100973.78;;;26.65;39.84
69772;BME280;57046;45.988;18.664;2023-06-04T10:10:49;100968.72;;;26.60;40.24
69772;BME280;57046;45.988;18.664;2023-06-04T10:13:19;100962.88;;;26.81;42.86
69772;BME280;57046;45.988;18.664;2023-06-04T10:15:46;100961.09;;;26.95;42.89
69772;BME280;57046;45.988;18.664;2023-06-04T10:18:12;100946.00;;;26.99;41.68
69772;BME280;57046;45.988;18.664;2023-06-04T10:20:40;100955.25;;;27.16;41.48
69772;BME280;57046;45.988;18.664;2023-06-04T10:23:06;100950.91;;;27.15;40.22
69772;BME280;57046;45.988;18.664;2023-06-04T10:25:32;100952.41;;;27.19;38.80
69772;BME280;57046;45.988;18.664;2023-06-04T10:27:57;100944.81;;;27.23;38.50
69772;BME280;57046;45.988;18.664;2023-06-04T10:30:23;100924.66;;;27.19;43.33
69772;BME280;57046;45.988;18.664;2023-06-04T10:32:48;100951.72;;;27.39;39.39
69772;BME280;57046;45.988;18.664;2023-06-04T10:35:14;100945.91;;;27.53;40.29
69772;BME280;57046;45.988;18.664;2023-06-04T10:37:39;100950.72;;;27.52;39.79
69772;BME280;57046;45.988;18.664;2023-06-04T10:40:05;100952.66;;;27.55;38.65
69772;BME280;57046;45.988;18.664;2023-06-04T10:42:42;100952.47;;;27.66;38.99
69772;BME280;57046;45.988;18.664;2023-06-04T10:45:08;100960.16;;;27.78;40.15
69772;BME280;57046;45.988;18.664;2023-06-04T10:47:33;100921.25;;;27.58;38.87
69772;BME280;57046;45.988;18.664;2023-06-04T10:50:10;100942.53;;;27.65;38.27
69772;BME280;57046;45.988;18.664;2023-06-04T10:52:36;100939.31;;;27.66;37.41
69772;BME280;57046;45.988;18.664;2023-06-04T10:55:06;100943.22;;;27.72;38.53
69772;BME280;57046;45.988;18.664;2023-06-04T10:57:32;100926.03;;;27.77;40.53
69772;BME280;57046;45.988;18.664;2023-06-04T10:59:59;100935.03;;;28.05;40.35
69772;BME280;57046;45.988;18.664;2023-06-04T11:02:26;100931.00;;;28.09;39.73
69772;BME280;57046;45.988;18.664;2023-06-04T11:05:02;100924.03;;;27.98;38.92
69772;BME280;57046;45.988;18.664;2023-06-04T11:07:28;100914.78;;;28.04;40.66
69772;BME280;57046;45.988;18.664;2023-06-04T11:09:55;100912.78;;;28.05;40.18
69772;BME280;57046;45.988;18.664;2023-06-04T11:12:20;100944.75;;;28.36;39.16
69772;BME280;57046;45.988;18.664;2023-06-04T11:14:56;100947.31;;;28.47;40.46
69772;BME280;57046;45.988;18.664;2023-06-04T11:17:21;100931.31;;;28.51;38.23
69772;BME280;57046;45.988;18.664;2023-06-04T11:19:46;100930.22;;;28.64;39.85
69772;BME280;57046;45.988;18.664;2023-06-04T11:22:12;100922.13;;;28.54;38.30
69772;BME280;57046;45.988;18.664;2023-06-04T11:24:38;100930.22;;;28.64;38.11
69772;BME280;57046;45.988;18.664;2023-06-04T11:27:03;100915.88;;;28.66;40.88
69772;BME280;57046;45.988;18.664;2023-06-04T11:29:29;100924.94;;;28.70;38.08
69772;BME280;57046;45.988;18.664;2023-06-04T11:31:54;100909.75;;;28.74;38.13
69772;BME280;57046;45.988;18.664;2023-06-04T11:34:27;100912.00;;;28.79;37.78
69772;BME280;57046;45.988;18.664;2023-06-04T11:36:52;100896.50;;;28.78;41.33
69772;BME280;57046;45.988;18.664;2023-06-04T11:39:18;100908.81;;;28.97;38.57
69772;BME280;57046;45.988;18.664;2023-06-04T11:41:44;100898.44;;;28.98;41.28
69772;BME280;57046;45.988;18.664;2023-06-04T11:44:11;100899.47;;;29.20;41.00
69772;BME280;57046;45.988;18.664;2023-06-04T11:46:41;100877.28;;;29.16;39.66
69772;BME280;57046;45.988;18.664;2023-06-04T11:49:06;100908.44;;;29.44;38.06
69772;BME280;57046;45.988;18.664;2023-06-04T11:51:33;100905.16;;;29.33;37.93
69772;BME280;57046;45.988;18.664;2023-06-04T11:53:58;100904.91;;;29.27;37.89
69772;BME280;57046;45.988;18.664;2023-06-04T11:56:24;100901.84;;;29.21;39.20
69772;BME280;57046;45.988;18.664;2023-06-04T11:58:50;100903.75;;;29.41;38.10
69772;BME280;57046;45.988;18.664;2023-06-04T12:01:15;100894.59;;;29.40;39.80
69772;BME280;57046;45.988;18.664;2023-06-04T12:03:42;100900.81;;;29.60;40.73
69772;BME280;57046;45.988;18.664;2023-06-04T12:06:14;100894.59;;;29.56;37.64
69772;BME280;57046;45.988;18.664;2023-06-04T12:08:46;100894.50;;;29.60;36.99
69772;BME280;57046;45.988;18.664;2023-06-04T12:11:29;100896.41;;;29.47;38.58
69772;BME280;57046;45.988;18.664;2023-06-04T12:13:57;100896.97;;;29.42;37.65
69772;BME280;57046;45.988;18.664;2023-06-04T12:16:22;100881.38;;;29.44;36.97
69772;BME280;57046;45.988;18.664;2023-06-04T12:18:47;100884.34;;;29.37;38.68
69772;BME280;57046;45.988;18.664;2023-06-04T12:21:24;100874.03;;;29.50;38.08
69772;BME280;57046;45.988;18.664;2023-06-04T12:23:49;100861.72;;;29.35;37.23
69772;BME280;57046;45.988;18.664;2023-06-04T12:26:24;100869.84;;;29.58;38.73
69772;BME280;57046;45.988;18.664;2023-06-04T12:29:06;100865.06;;;29.59;38.33
69772;BME280;57046;45.988;18.664;2023-06-04T12:31:32;100871.88;;;29.70;38.38
69772;BME280;57046;45.988;18.664;2023-06-04T12:34:00;100873.78;;;29.90;38.02
69772;BME280;57046;45.988;18.664;2023-06-04T12:36:26;100868.97;;;29.90;39.40
69772;BME280;57046;45.988;18.664;2023-06-04T12:38:52;100882.16;;;30.02;38.31
69772;BME280;57046;45.988;18.664;2023-06-04T12:41:17;100869.91;;;30.00;36.89